sensor_id;sensor_type;location;lat;lon;timestamp;pressure;altitude;pressure_sealevel;temperature;humidity
33286;BME280;19656;50.096;20.014;2023-05-19T00:01:48;99943.00;;;11.39;72.10
33286;BME280;19656;50.096;20.014;2023-05-19T00:06:52;99942.65;;;11.39;71.87
33286;BME280;19656;50.096;20.014;2023-05-19T00:11:56;99941.10;;;11.41;71.77
33286;BME280;19656;50.096;20.014;2023-05-19T00:48:01;99916.65;;;11.33;72.04
33286;BME280;19656;50.096;20.014;2023-05-19T00:53:05;99913.20;;;11.31;71.99
33286;BME280;19656;50.096;20.014;2023-05-19T00:58:09;99909.21;;;11.29;72.20
33286;BME280;19656;50.096;20.014;2023-05-19T01:03:13;99914.67;;;11.26;72.15
33286;BME280;19656;50.096;20.014;2023-05-19T01:08:22;99917.65;;;11.20;72.23
33286;BME280;19656;50.096;20.014;2023-05-19T01:13:26;99914.52;;;11.19;72.52
33286;BME280;19656;50.096;20.014;2023-05-19T01:18:42;99917.85;;;11.20;72.46
33286;BME280;19656;50.096;20.014;2023-05-19T01:24:01;99925.02;;;11.29;72.41
33286;BME280;19656;50.096;20.014;2023-05-19T01:29:28;99927.18;;;11.32;72.12
33286;BME280;19656;50.096;20.014;2023-05-19T01:34:42;99919.46;;;11.30;72.26
33286;BME280;19656;50.096;20.014;2023-05-19T01:39:47;99910.42;;;11.33;72.19
33286;BME280;19656;50.096;20.014;2023-05-19T01:48:09;99902.23;;;11.34;72.04
33286;BME280;19656;50.096;20.014;2023-05-19T01:53:14;99904.45;;;11.28;72.08
33286;BME280;19656;50.096;20.014;2023-05-19T02:14:51;99900.52;;;11.39;72.13
33286;BME280;19656;50.096;20.014;2023-05-19T02:19:56;99891.68;;;11.35;72.24
33286;BME280;19656;50.096;20.014;2023-05-19T02:24:59;99889.77;;;11.30;72.48
33286;BME280;19656;50.096;20.014;2023-05-19T02:30:03;99882.29;;;11.27;72.61
33286;BME280;19656;50.096;20.014;2023-05-19T02:35:07;99881.32;;;11.22;72.85
33286;BME280;19656;50.096;20.014;2023-05-19T02:40:10;99885.80;;;11.21;73.02
33286;BME280;19656;50.096;20.014;2023-05-19T02:45:13;99878.02;;;11.27;72.99
33286;BME280;19656;50.096;20.014;2023-05-19T02:50:16;99876.84;;;11.33;72.94
33286;BME280;19656;50.096;20.014;2023-05-19T02:55:19;99879.26;;;11.41;72.92
33286;BME280;19656;50.096;20.014;2023-05-19T03:00:22;99881.68;;;11.46;72.48
33286;BME280;19656;50.096;20.014;2023-05-19T03:05:26;99882.86;;;11.44;72.44
33286;BME280;19656;50.096;20.014;2023-05-19T03:10:30;99885.52;;;11.41;72.35
33286;BME280;19656;50.096;20.014;2023-05-19T03:15:33;99888.04;;;11.33;72.48
33286;BME280;19656;50.096;20.014;2023-05-19T03:20:37;99887.80;;;11.31;72.65
33286;BME280;19656;50.096;20.014;2023-05-19T03:25:43;99881.55;;;11.35;72.70
33286;BME280;19656;50.096;20.014;2023-05-19T03:30:46;99888.54;;;11.37;72.73
33286;BME280;19656;50.096;20.014;2023-05-19T03:35:55;99888.55;;;11.41;72.85
33286;BME280;19656;50.096;20.014;2023-05-19T03:40:59;99883.04;;;11.48;73.00
33286;BME280;19656;50.096;20.014;2023-05-19T03:46:02;99877.72;;;11.50;72.58
33286;BME280;19656;50.096;20.014;2023-05-19T03:51:29;99877.27;;;11.46;72.76
33286;BME280;19656;50.096;20.014;2023-05-19T03:56:50;99884.44;;;11.44;72.89
33286;BME280;19656;50.096;20.014;2023-05-19T04:01:53;99883.54;;;11.45;73.01
33286;BME280;19656;50.096;20.014;2023-05-19T04:06:57;99887.52;;;11.50;73.16
33286;BME280;19656;50.096;20.014;2023-05-19T04:12:01;99890.73;;;11.56;73.11
33286;BME280;19656;50.096;20.014;2023-05-19T04:17:07;99896.85;;;11.65;73.17
33286;BME280;19656;50.096;20.014;2023-05-19T04:22:10;99897.77;;;11.68;72.94
33286;BME280;19656;50.096;20.014;2023-05-19T04:27:13;99898.76;;;11.66;72.91
33286;BME280;19656;50.096;20.014;2023-05-19T04:32:24;99897.34;;;11.66;72.93
33286;BME280;19656;50.096;20.014;2023-05-19T04:37:28;99900.26;;;11.65;73.11
33286;BME280;19656;50.096;20.014;2023-05-19T04:42:32;99891.15;;;11.69;73.31
33286;BME280;19656;50.096;20.014;2023-05-19T04:47:36;99894.34;;;11.76;73.24
33286;BME280;19656;50.096;20.014;2023-05-19T04:52:40;99891.16;;;11.82;73.29
33286;BME280;19656;50.096;20.014;2023-05-19T04:57:50;99892.84;;;11.88;73.22
33286;BME280;19656;50.096;20.014;2023-05-19T05:02:54;99891.17;;;11.92;73.19
33286;BME280;19656;50.096;20.014;2023-05-19T05:08:00;99891.50;;;11.93;73.19
33286;BME280;19656;50.096;20.014;2023-05-19T05:13:09;99893.06;;;11.93;73.11
33286;BME280;19656;50.096;20.014;2023-05-19T05:18:14;99893.09;;;11.99;73.00
33286;BME280;19656;50.096;20.014;2023-05-19T05:23:18;99895.06;;;12.06;72.85
33286;BME280;19656;50.096;20.014;2023-05-19T05:28:22;99892.98;;;12.18;72.78
33286;BME280;19656;50.096;20.014;2023-05-19T05:33:25;99894.77;;;12.24;72.59
33286;BME280;19656;50.096;20.014;2023-05-19T05:38:29;99894.76;;;12.24;72.38
33286;BME280;19656;50.096;20.014;2023-05-19T05:43:34;99898.50;;;12.24;72.33
33286;BME280;19656;50.096;20.014;2023-05-19T05:48:38;99901.05;;;12.23;72.57
33286;BME280;19656;50.096;20.014;2023-05-19T05:53:50;99904.75;;;12.21;72.66
33286;BME280;19656;50.096;20.014;2023-05-19T05:58:54;99905.86;;;12.20;72.39
33286;BME280;19656;50.096;20.014;2023-05-19T06:03:57;99908.45;;;12.28;72.66
33286;BME280;19656;50.096;20.014;2023-05-19T06:09:01;99912.41;;;12.37;72.54
33286;BME280;19656;50.096;20.014;2023-05-19T06:14:04;99911.60;;;12.41;72.56
33286;BME280;19656;50.096;20.014;2023-05-19T06:19:27;99922.00;;;12.47;72.56
33286;BME280;19656;50.096;20.014;2023-05-19T06:24:30;99926.19;;;12.45;72.42
33286;BME280;19656;50.096;20.014;2023-05-19T06:29:33;99930.34;;;12.47;72.33
33286;BME280;19656;50.096;20.014;2023-05-19T06:34:38;99932.45;;;12.47;72.62
33286;BME280;19656;50.096;20.014;2023-05-19T06:39:42;99934.67;;;12.52;72.45
33286;BME280;19656;50.096;20.014;2023-05-19T06:44:56;99934.34;;;12.58;72.48
33286;BME280;19656;50.096;20.014;2023-05-19T06:50:02;99934.92;;;12.61;72.30
33286;BME280;19656;50.096;20.014;2023-05-19T06:55:07;99940.30;;;12.60;72.34
33286;BME280;19656;50.096;20.014;2023-05-19T07:00:12;99942.88;;;12.55;72.25
33286;BME280;19656;50.096;20.014;2023-05-19T07:05:21;99938.99;;;12.55;72.65
33286;BME280;19656;50.096;20.014;2023-05-19T07:10:28;99933.28;;;12.61;72.58
33286;BME280;19656;50.096;20.014;2023-05-19T07:15:31;99931.64;;;12.68;72.70
33286;BME280;19656;50.096;20.014;2023-05-19T07:20:35;99928.33;;;12.83;72.49
33286;BME280;19656;50.096;20.014;2023-05-19T07:25:41;99928.05;;;12.88;72.16
33286;BME280;19656;50.096;20.014;2023-05-19T07:30:47;99926.24;;;12.91;72.15
33286;BME280;19656;50.096;20.014;2023-05-19T07:35:52;99929.04;;;12.92;72.12
33286;BME280;19656;50.096;20.014;2023-05-19T07:40:55;99930.38;;;12.97;72.15
33286;BME280;19656;50.096;20.014;2023-05-19T07:45:58;99930.04;;;12.99;71.83
33286;BME280;19656;50.096;20.014;2023-05-19T07:51:01;99932.46;;;12.97;71.78
33286;BME280;19656;50.096;20.014;2023-05-19T07:56:05;99936.67;;;12.99;71.58
33286;BME280;19656;50.096;20.014;2023-05-19T08:01:08;99933.61;;;13.02;71.57
33286;BME280;19656;50.096;20.014;2023-05-19T08:06:11;99931.36;;;13.05;71.40
33286;BME280;19656;50.096;20.014;2023-05-19T08:11:14;99927.38;;;13.09;71.41
33286;BME280;19656;50.096;20.014;2023-05-19T08:16:17;99925.80;;;13.09;71.25
33286;BME280;19656;50.096;20.014;2023-05-19T08:21:20;99927.84;;;13.16;71.59
33286;BME280;19656;50.096;20.014;2023-05-19T08:26:23;99925.02;;;13.31;71.41
33286;BME280;19656;50.096;20.014;2023-05-19T08:31:28;99927.77;;;13.36;70.86
33286;BME280;19656;50.096;20.014;2023-05-19T08:36:31;99927.60;;;13.44;70.68
33286;BME280;19656;50.096;20.014;2023-05-19T08:41:36;99927.52;;;13.52;70.43
33286;BME280;19656;50.096;20.014;2023-05-19T08:48:12;99925.58;;;13.49;69.99
33286;BME280;19656;50.096;20.014;2023-05-19T08:53:26;99930.41;;;13.42;70.17
33286;BME280;19656;50.096;20.014;2023-05-19T08:58:33;99931.72;;;13.38;70.47
33286;BME280;19656;50.096;20.014;2023-05-19T09:03:36;99935.48;;;13.38;70.72
33286;BME280;19656;50.096;20.014;2023-05-19T09:08:40;99941.10;;;13.39;70.64
33286;BME280;19656;50.096;20.014;2023-05-19T09:13:44;99941.63;;;13.40;70.49
33286;BME280;19656;50.096;20.014;2023-05-19T09:18:55;99946.34;;;13.41;70.47
33286;BME280;19656;50.096;20.014;2023-05-19T09:24:06;99944.86;;;13.51;70.72
33286;BME280;19656;50.096;20.014;2023-05-19T09:29:12;99941.63;;;13.55;70.39
33286;BME280;19656;50.096;20.014;2023-05-19T09:34:16;99946.45;;;13.57;70.34
33286;BME280;19656;50.096;20.014;2023-05-19T09:39:22;99947.73;;;13.54;70.10
33286;BME280;19656;50.096;20.014;2023-05-19T09:44:25;99951.23;;;13.55;70.34
33286;BME280;19656;50.096;20.014;2023-05-19T09:49:32;99948.94;;;13.57;70.28
33286;BME280;19656;50.096;20.014;2023-05-19T09:54:35;99945.95;;;13.65;70.49
33286;BME280;19656;50.096;20.014;2023-05-19T09:59:39;99947.38;;;13.68;70.18
33286;BME280;19656;50.096;20.014;2023-05-19T10:04:43;99946.07;;;13.67;70.06
33286;BME280;19656;50.096;20.014;2023-05-19T10:09:47;99947.73;;;13.66;70.01
33286;BME280;19656;50.096;20.014;2023-05-19T10:14:51;99941.17;;;13.68;69.99
33286;BME280;19656;50.096;20.014;2023-05-19T10:20:05;99941.11;;;13.72;69.73
33286;BME280;19656;50.096;20.014;2023-05-19T10:25:09;99931.72;;;13.74;69.93
33286;BME280;19656;50.096;20.014;2023-05-19T10:30:17;99929.76;;;13.86;70.28
33286;BME280;19656;50.096;20.014;2023-05-19T10:35:46;99932.64;;;14.00;70.14
33286;BME280;19656;50.096;20.014;2023-05-19T10:40:59;99926.23;;;14.00;69.73
33286;BME280;19656;50.096;20.014;2023-05-19T10:46:04;99928.23;;;14.02;69.91
33286;BME280;19656;50.096;20.014;2023-05-19T10:51:08;99931.19;;;14.01;70.04
33286;BME280;19656;50.096;20.014;2023-05-19T10:56:27;99931.73;;;14.00;70.02
33286;BME280;19656;50.096;20.014;2023-05-19T11:01:33;99931.30;;;14.01;70.18
33286;BME280;19656;50.096;20.014;2023-05-19T11:06:37;99934.23;;;14.06;70.04
33286;BME280;19656;50.096;20.014;2023-05-19T11:11:52;99931.56;;;14.09;69.98
33286;BME280;19656;50.096;20.014;2023-05-19T11:16:57;99929.39;;;14.15;70.03
33286;BME280;19656;50.096;20.014;2023-05-19T11:22:08;99930.09;;;14.20;69.97
33286;BME280;19656;50.096;20.014;2023-05-19T11:27:27;99931.39;;;14.26;69.82
33286;BME280;19656;50.096;20.014;2023-05-19T11:32:34;99929.20;;;14.23;69.70
33286;BME280;19656;50.096;20.014;2023-05-19T11:37:41;99929.77;;;14.17;69.71
33286;BME280;19656;50.096;20.014;2023-05-19T11:42:44;99929.45;;;14.17;69.73
33286;BME280;19656;50.096;20.014;2023-05-19T11:47:48;99933.20;;;14.19;69.83
33286;BME280;19656;50.096;20.014;2023-05-19T11:53:04;99932.07;;;14.26;69.87
33286;BME280;19656;50.096;20.014;2023-05-19T11:58:07;99937.13;;;14.33;69.68
33286;BME280;19656;50.096;20.014;2023-05-19T12:03:10;99931.67;;;14.35;69.54
33286;BME280;19656;50.096;20.014;2023-05-19T12:08:17;99936.77;;;14.33;69.57
33286;BME280;19656;50.096;20.014;2023-05-19T12:13:21;99939.10;;;14.33;69.65
33286;BME280;19656;50.096;20.014;2023-05-19T12:18:28;99941.52;;;14.35;69.63
33286;BME280;19656;50.096;20.014;2023-05-19T12:23:33;99934.73;;;14.38;69.81
33286;BME280;19656;50.096;20.014;2023-05-19T12:28:36;99934.66;;;14.41;69.67
33286;BME280;19656;50.096;20.014;2023-05-19T12:33:39;99934.53;;;14.43;69.49
33286;BME280;19656;50.096;20.014;2023-05-19T12:38:43;99930.73;;;14.44;69.34
33286;BME280;19656;50.096;20.014;2023-05-19T12:43:47;99924.40;;;14.46;69.55
33286;BME280;19656;50.096;20.014;2023-05-19T12:48:50;99919.33;;;14.53;69.51
33286;BME280;19656;50.096;20.014;2023-05-19T12:53:53;99915.73;;;14.53;69.25
33286;BME280;19656;50.096;20.014;2023-05-19T12:58:59;99917.09;;;14.49;69.34
33286;BME280;19656;50.096;20.014;2023-05-19T13:04:03;99916.89;;;14.40;69.42
33286;BME280;19656;50.096;20.014;2023-05-19T13:09:08;99920.03;;;14.36;69.52
33286;BME280;19656;50.096;20.014;2023-05-19T13:14:12;99914.55;;;14.40;69.71
33286;BME280;19656;50.096;20.014;2023-05-19T13:19:18;99905.57;;;14.44;69.55
33286;BME280;19656;50.096;20.014;2023-05-19T13:24:25;99905.29;;;14.42;69.57
33286;BME280;19656;50.096;20.014;2023-05-19T13:29:28;99903.96;;;14.44;69.61
33286;BME280;19656;50.096;20.014;2023-05-19T13:34:31;99903.75;;;14.45;69.65
33286;BME280;19656;50.096;20.014;2023-05-19T13:39:34;99905.49;;;14.42;69.63
33286;BME280;19656;50.096;20.014;2023-05-19T13:44:37;99901.45;;;14.41;69.66
33286;BME280;19656;50.096;20.014;2023-05-19T13:49:41;99902.63;;;14.42;69.52
33286;BME280;19656;50.096;20.014;2023-05-19T13:54:44;99904.02;;;14.46;69.57
33286;BME280;19656;50.096;20.014;2023-05-19T13:59:47;99901.31;;;14.53;69.39
33286;BME280;19656;50.096;20.014;2023-05-19T14:05:13;99906.23;;;14.51;68.99
33286;BME280;19656;50.096;20.014;2023-05-19T14:10:16;99911.50;;;14.46;69.17
33286;BME280;19656;50.096;20.014;2023-05-19T14:15:19;99909.09;;;14.45;69.24
33286;BME280;19656;50.096;20.014;2023-05-19T14:20:23;99907.75;;;14.43;69.22
33286;BME280;19656;50.096;20.014;2023-05-19T14:25:29;99908.64;;;14.41;69.18
33286;BME280;19656;50.096;20.014;2023-05-19T14:30:32;99911.64;;;14.38;69.06
33286;BME280;19656;50.096;20.014;2023-05-19T14:35:35;99910.73;;;14.39;69.41
33286;BME280;19656;50.096;20.014;2023-05-19T14:40:38;99913.31;;;14.40;69.50
33286;BME280;19656;50.096;20.014;2023-05-19T14:45:45;99911.44;;;14.41;69.54
33286;BME280;19656;50.096;20.014;2023-05-19T14:50:48;99912.79;;;14.43;69.36
33286;BME280;19656;50.096;20.014;2023-05-19T14:55:52;99914.07;;;14.42;69.33
33286;BME280;19656;50.096;20.014;2023-05-19T15:00:58;99915.35;;;14.39;69.10
33286;BME280;19656;50.096;20.014;2023-05-19T15:06:02;99916.35;;;14.35;69.28
33286;BME280;19656;50.096;20.014;2023-05-19T15:11:05;99921.54;;;14.32;69.26
33286;BME280;19656;50.096;20.014;2023-05-19T15:16:08;99921.25;;;14.31;69.21
33286;BME280;19656;50.096;20.014;2023-05-19T15:21:19;99926.45;;;14.30;69.41
33286;BME280;19656;50.096;20.014;2023-05-19T15:26:23;99926.28;;;14.33;69.30
33286;BME280;19656;50.096;20.014;2023-05-19T15:31:26;99922.92;;;14.35;69.31
33286;BME280;19656;50.096;20.014;2023-05-19T15:36:29;99920.02;;;14.36;69.42
33286;BME280;19656;50.096;20.014;2023-05-19T15:41:36;99921.77;;;14.33;69.29
33286;BME280;19656;50.096;20.014;2023-05-19T15:46:39;99921.07;;;14.31;69.23
33286;BME280;19656;50.096;20.014;2023-05-19T15:51:43;99919.89;;;14.29;69.32
33286;BME280;19656;50.096;20.014;2023-05-19T15:56:46;99922.70;;;14.27;69.35
33286;BME280;19656;50.096;20.014;2023-05-19T16:01:49;99924.53;;;14.30;69.57
33286;BME280;19656;50.096;20.014;2023-05-19T16:06:55;99923.68;;;14.34;69.53
33286;BME280;19656;50.096;20.014;2023-05-19T16:11:58;99925.70;;;14.33;69.68
33286;BME280;19656;50.096;20.014;2023-05-19T16:17:02;99927.10;;;14.31;69.73
33286;BME280;19656;50.096;20.014;2023-05-19T16:22:05;99935.88;;;14.25;69.66
33286;BME280;19656;50.096;20.014;2023-05-19T16:27:08;99937.91;;;14.18;69.73
33286;BME280;19656;50.096;20.014;2023-05-19T16:32:11;99930.98;;;14.12;70.00
33286;BME280;19656;50.096;20.014;2023-05-19T16:37:15;99925.31;;;14.09;70.06
33286;BME280;19656;50.096;20.014;2023-05-19T16:42:18;99922.91;;;14.07;70.08
33286;BME280;19656;50.096;20.014;2023-05-19T16:47:21;99917.65;;;14.11;70.16
33286;BME280;19656;50.096;20.014;2023-05-19T16:52:25;99915.04;;;14.16;70.14
33286;BME280;19656;50.096;20.014;2023-05-19T16:57:28;99916.41;;;14.20;70.01
33286;BME280;19656;50.096;20.014;2023-05-19T17:02:31;99918.11;;;14.24;69.69
33286;BME280;19656;50.096;20.014;2023-05-19T17:07:35;99915.45;;;14.24;69.62
33286;BME280;19656;50.096;20.014;2023-05-19T17:12:38;99914.27;;;14.22;69.63
33286;BME280;19656;50.096;20.014;2023-05-19T17:17:41;99919.80;;;14.19;69.64
33286;BME280;19656;50.096;20.014;2023-05-19T17:22:45;99927.34;;;14.19;69.67
33286;BME280;19656;50.096;20.014;2023-05-19T17:27:57;99938.51;;;14.20;69.67
33286;BME280;19656;50.096;20.014;2023-05-19T17:33:00;99945.31;;;14.23;69.81
33286;BME280;19656;50.096;20.014;2023-05-19T17:38:04;99945.09;;;14.26;69.68
33286;BME280;19656;50.096;20.014;2023-05-19T17:43:07;99950.43;;;14.26;69.69
33286;BME280;19656;50.096;20.014;2023-05-19T17:48:10;99953.40;;;14.25;69.53
33286;BME280;19656;50.096;20.014;2023-05-19T17:53:14;99951.66;;;14.21;69.37
33286;BME280;19656;50.096;20.014;2023-05-19T17:58:18;99949.48;;;14.13;69.63
33286;BME280;19656;50.096;20.014;2023-05-19T18:03:22;99955.78;;;14.09;69.90
33286;BME280;19656;50.096;20.014;2023-05-19T18:08:26;99958.08;;;14.15;69.99
33286;BME280;19656;50.096;20.014;2023-05-19T18:13:30;99957.59;;;14.15;69.68
33286;BME280;19656;50.096;20.014;2023-05-19T18:18:33;99955.66;;;14.11;69.59
33286;BME280;19656;50.096;20.014;2023-05-19T18:48:06;99969.37;;;13.88;70.22
33286;BME280;19656;50.096;20.014;2023-05-19T18:53:10;99971.48;;;13.89;70.17
33286;BME280;19656;50.096;20.014;2023-05-19T18:58:14;99970.79;;;13.91;70.41
33286;BME280;19656;50.096;20.014;2023-05-19T19:03:17;99971.13;;;13.89;70.45
33286;BME280;19656;50.096;20.014;2023-05-19T19:08:21;99973.88;;;13.85;70.51
33286;BME280;19656;50.096;20.014;2023-05-19T19:13:27;99982.11;;;13.81;70.68
33286;BME280;19656;50.096;20.014;2023-05-19T19:18:31;99984.45;;;13.81;70.70
33286;BME280;19656;50.096;20.014;2023-05-19T19:23:36;99992.77;;;13.88;70.75
33286;BME280;19656;50.096;20.014;2023-05-19T19:28:40;99993.30;;;13.94;70.61
33286;BME280;19656;50.096;20.014;2023-05-19T19:33:44;99989.37;;;14.03;70.50
33286;BME280;19656;50.096;20.014;2023-05-19T19:38:47;99990.77;;;14.06;70.60
33286;BME280;19656;50.096;20.014;2023-05-19T19:43:51;99998.10;;;14.03;70.33
33286;BME280;19656;50.096;20.014;2023-05-19T19:48:57;100004.45;;;13.98;70.46
33286;BME280;19656;50.096;20.014;2023-05-19T19:54:03;99999.08;;;13.96;70.60
33286;BME280;19656;50.096;20.014;2023-05-19T19:59:07;99992.77;;;13.91;70.45
33286;BME280;19656;50.096;20.014;2023-05-19T20:04:10;99991.95;;;13.90;70.55
33286;BME280;19656;50.096;20.014;2023-05-19T20:09:14;99992.33;;;13.89;70.60
33286;BME280;19656;50.096;20.014;2023-05-19T20:14:18;99986.00;;;13.88;70.61
33286;BME280;19656;50.096;20.014;2023-05-19T20:19:21;99989.45;;;13.84;70.78
33286;BME280;19656;50.096;20.014;2023-05-19T20:24:28;99987.48;;;13.78;70.93
33286;BME280;19656;50.096;20.014;2023-05-19T20:33:27;99986.54;;;13.73;71.19
33286;BME280;19656;50.096;20.014;2023-05-19T20:38:30;99990.86;;;13.81;71.84
33286;BME280;19656;50.096;20.014;2023-05-19T20:43:33;99985.23;;;13.94;71.22
33286;BME280;19656;50.096;20.014;2023-05-19T20:48:36;99986.14;;;13.94;70.88
33286;BME280;19656;50.096;20.014;2023-05-19T20:53:40;99980.50;;;13.93;70.87
33286;BME280;19656;50.096;20.014;2023-05-19T20:58:43;99976.51;;;13.88;70.89
33286;BME280;19656;50.096;20.014;2023-05-19T21:03:46;99976.98;;;13.83;70.90
33286;BME280;19656;50.096;20.014;2023-05-19T21:08:49;99979.34;;;13.77;70.86
33286;BME280;19656;50.096;20.014;2023-05-19T21:13:53;99977.08;;;13.70;71.20
33286;BME280;19656;50.096;20.014;2023-05-19T21:18:58;99981.89;;;13.70;71.40
33286;BME280;19656;50.096;20.014;2023-05-19T21:24:02;99983.68;;;13.76;71.31
33286;BME280;19656;50.096;20.014;2023-05-19T21:33:27;99979.36;;;13.80;71.33
33286;BME280;19656;50.096;20.014;2023-05-19T21:38:30;99982.39;;;13.77;71.22
33286;BME280;19656;50.096;20.014;2023-05-19T21:43:33;99977.73;;;13.71;71.25
33286;BME280;19656;50.096;20.014;2023-05-19T21:48:36;99983.03;;;13.66;71.36
33286;BME280;19656;50.096;20.014;2023-05-19T21:53:39;99981.90;;;13.61;71.60
33286;BME280;19656;50.096;20.014;2023-05-19T21:58:42;99980.63;;;13.62;71.62
33286;BME280;19656;50.096;20.014;2023-05-19T22:03:46;99984.89;;;13.68;71.71
33286;BME280;19656;50.096;20.014;2023-05-19T22:08:49;99980.58;;;13.71;71.52
33286;BME280;19656;50.096;20.014;2023-05-19T22:13:53;99980.39;;;13.71;71.61
33286;BME280;19656;50.096;20.014;2023-05-19T22:18:56;99980.83;;;13.70;71.42
33286;BME280;19656;50.096;20.014;2023-05-19T22:23:59;99982.31;;;13.63;71.41
33286;BME280;19656;50.096;20.014;2023-05-19T22:29:03;99979.43;;;13.55;71.58
33286;BME280;19656;50.096;20.014;2023-05-19T22:34:06;99977.81;;;13.55;71.64
33286;BME280;19656;50.096;20.014;2023-05-19T22:39:10;99974.84;;;13.60;71.64
33286;BME280;19656;50.096;20.014;2023-05-19T22:44:14;99964.98;;;13.67;71.58
33286;BME280;19656;50.096;20.014;2023-05-19T22:49:19;99960.66;;;13.70;71.44
33286;BME280;19656;50.096;20.014;2023-05-19T22:54:23;99965.30;;;13.70;71.31
33286;BME280;19656;50.096;20.014;2023-05-19T22:59:26;99960.82;;;13.62;71.45
33286;BME280;19656;50.096;20.014;2023-05-19T23:04:30;99956.66;;;13.54;71.38
33286;BME280;19656;50.096;20.014;2023-05-19T23:09:34;99946.52;;;13.47;71.61
33286;BME280;19656;50.096;20.014;2023-05-19T23:14:37;99945.02;;;13.52;71.68
33286;BME280;19656;50.096;20.014;2023-05-19T23:19:40;99935.23;;;13.51;71.76
33286;BME280;19656;50.096;20.014;2023-05-19T23:24:43;99936.33;;;13.54;71.83
33286;BME280;19656;50.096;20.014;2023-05-19T23:29:47;99929.95;;;13.53;71.75
33286;BME280;19656;50.096;20.014;2023-05-19T23:34:50;99921.84;;;13.45;72.04
33286;BME280;19656;50.096;20.014;2023-05-19T23:39:54;99921.70;;;13.39;72.14
33286;BME280;19656;50.096;20.014;2023-05-19T23:44:57;99922.66;;;13.35;72.44
33286;BME280;19656;50.096;20.014;2023-05-19T23:50:01;99917.19;;;13.40;72.29
33286;BME280;19656;50.096;20.014;2023-05-19T23:55:05;99916.96;;;13.49;72.49
